createdAt,value
2023-04-13T00:00:38.656Z,20.10
2023-04-13T00:03:05.660Z,20.10
2023-04-13T00:05:34.462Z,20.10
2023-04-13T00:08:03.463Z,20.10
2023-04-13T00:10:37.077Z,20.10
2023-04-13T00:13:05.250Z,20.00
2023-04-13T00:15:32.623Z,20.00
2023-04-13T00:17:59.666Z,20.00
2023-04-13T00:20:26.463Z,20.00
2023-04-13T00:22:53.829Z,20.00
2023-04-13T00:25:20.603Z,20.00
2023-04-13T00:27:49.901Z,20.00
2023-04-13T00:30:18.136Z,20.00
2023-04-13T00:32:45.286Z,20.00
2023-04-13T00:35:15.001Z,20.00
2023-04-13T00:37:43.169Z,20.00
2023-04-13T00:40:10.878Z,20.00
2023-04-13T00:42:37.631Z,20.00
2023-04-13T00:45:04.800Z,20.00
2023-04-13T00:47:32.327Z,20.00
2023-04-13T00:50:01.509Z,20.00
2023-04-13T00:52:28.971Z,20.00
2023-04-13T00:54:57.434Z,20.00
2023-04-13T00:57:25.381Z,20.10
2023-04-13T00:59:52.838Z,20.10
2023-04-13T01:02:26.449Z,20.10
2023-04-13T01:04:54.904Z,20.20
2023-04-13T01:07:59.381Z,20.20
2023-04-13T01:10:46.924Z,20.20
2023-04-13T01:13:42.012Z,20.20
2023-04-13T01:16:14.548Z,20.20
2023-04-13T01:18:41.804Z,20.10
2023-04-13T01:21:12.037Z,20.10
2023-04-13T01:23:51.496Z,20.10
2023-04-13T01:26:19.000Z,20.10
2023-04-13T01:28:45.664Z,20.10
2023-04-13T01:31:12.464Z,20.10
2023-04-13T01:33:40.643Z,20.10
2023-04-13T01:36:08.683Z,20.00
2023-04-13T01:38:35.658Z,20.00
2023-04-13T01:41:03.727Z,20.00
2023-04-13T01:43:30.696Z,20.00
2023-04-13T01:46:05.660Z,20.00
2023-04-13T01:48:47.252Z,20.00
2023-04-13T01:51:16.492Z,20.00
2023-04-13T01:53:57.311Z,20.00
2023-04-13T01:56:24.099Z,20.00
2023-04-13T01:58:53.509Z,20.00
2023-04-13T02:01:21.777Z,20.00
2023-04-13T02:03:49.046Z,20.00
2023-04-13T02:06:16.394Z,20.00
2023-04-13T02:08:43.057Z,20.00
2023-04-13T02:11:10.202Z,20.00
2023-04-13T02:13:36.923Z,20.00
2023-04-13T02:16:04.183Z,20.10
2023-04-13T02:18:31.016Z,20.10
2023-04-13T02:21:09.292Z,20.20
2023-04-13T02:23:36.864Z,20.20
2023-04-13T02:26:04.563Z,20.20
2023-04-13T02:28:31.252Z,20.20
2023-04-13T02:30:59.911Z,20.10
2023-04-13T02:33:32.786Z,20.10
2023-04-13T02:36:00.220Z,20.10
2023-04-13T02:38:30.468Z,20.10
2023-04-13T02:41:00.981Z,20.10
2023-04-13T02:43:27.771Z,20.00
2023-04-13T02:45:54.897Z,20.00
2023-04-13T02:48:22.567Z,20.00
2023-04-13T02:50:49.634Z,20.00
2023-04-13T02:53:16.818Z,20.00
2023-04-13T02:55:43.598Z,20.00
2023-04-13T02:58:10.836Z,20.00
2023-04-13T03:00:38.636Z,20.00
2023-04-13T03:03:07.104Z,20.00
2023-04-13T03:05:33.977Z,20.00
2023-04-13T03:08:00.623Z,20.00
2023-04-13T03:10:27.367Z,20.00
2023-04-13T03:12:55.641Z,20.00
2023-04-13T03:15:23.362Z,20.00
2023-04-13T03:17:50.609Z,20.00
2023-04-13T03:20:20.673Z,20.00
2023-04-13T03:22:47.340Z,20.00
2023-04-13T03:25:14.058Z,20.00
2023-04-13T03:27:41.000Z,20.00
2023-04-13T03:30:08.849Z,20.00
2023-04-13T03:32:35.743Z,20.10
2023-04-13T03:35:02.594Z,20.10
2023-04-13T03:37:32.465Z,20.10
2023-04-13T03:39:59.275Z,20.10
2023-04-13T03:42:26.676Z,20.20
2023-04-13T03:44:53.438Z,20.20
2023-04-13T03:47:20.389Z,20.10
2023-04-13T03:49:47.485Z,20.20
2023-04-13T03:52:14.438Z,20.10
2023-04-13T03:54:41.545Z,20.10
2023-04-13T03:57:08.329Z,20.10
2023-04-13T03:59:35.224Z,20.10
2023-04-13T04:02:03.058Z,20.00
2023-04-13T04:04:30.047Z,20.00
2023-04-13T04:06:58.537Z,20.00
2023-04-13T04:09:25.668Z,20.00
2023-04-13T04:11:52.447Z,20.00
2023-04-13T04:14:20.456Z,20.00
2023-04-13T04:16:47.294Z,20.00
2023-04-13T04:19:14.141Z,20.00
2023-04-13T04:21:47.132Z,20.00
2023-04-13T04:24:22.453Z,20.00
2023-04-13T04:26:50.019Z,20.00
2023-04-13T04:29:22.476Z,20.00
2023-04-13T04:31:53.430Z,20.00
2023-04-13T04:34:20.681Z,20.00
2023-04-13T04:36:50.553Z,20.00
2023-04-13T04:39:22.114Z,20.00
2023-04-13T04:41:55.232Z,20.00
2023-04-13T04:44:25.335Z,20.00
2023-04-13T04:46:52.602Z,20.10
2023-04-13T04:49:21.650Z,20.10
2023-04-13T04:51:52.067Z,20.10
2023-04-13T04:54:19.746Z,20.10
2023-04-13T04:56:47.413Z,20.10
2023-04-13T04:59:14.437Z,20.20
2023-04-13T05:01:43.128Z,20.20
2023-04-13T05:04:10.399Z,20.10
2023-04-13T05:06:37.832Z,20.20
2023-04-13T05:09:05.877Z,20.20
2023-04-13T05:11:32.774Z,20.10
2023-04-13T05:14:00.838Z,20.10
2023-04-13T05:16:30.521Z,20.10
2023-04-13T05:18:58.900Z,20.10
2023-04-13T05:21:27.096Z,20.10
2023-04-13T05:23:54.454Z,20.10
2023-04-13T05:26:21.201Z,20.10
2023-04-13T05:28:47.925Z,20.10
2023-04-13T05:31:15.774Z,20.10
2023-04-13T05:33:42.536Z,20.10
2023-04-13T05:36:09.877Z,20.10
2023-04-13T05:38:36.657Z,20.10
2023-04-13T05:41:03.468Z,20.10
2023-04-13T05:43:30.602Z,20.10
2023-04-13T05:45:58.518Z,20.10
2023-04-13T05:48:25.600Z,20.00
2023-04-13T05:50:58.689Z,20.00
2023-04-13T05:53:26.137Z,20.10
2023-04-13T05:55:53.158Z,20.10
2023-04-13T05:58:20.223Z,20.00
2023-04-13T06:00:46.988Z,20.10
2023-04-13T06:03:15.696Z,20.10
2023-04-13T06:05:43.321Z,20.10
2023-04-13T06:08:10.535Z,20.10
2023-04-13T06:10:37.683Z,20.20
2023-04-13T06:13:04.449Z,20.20
2023-04-13T06:15:31.727Z,20.20
2023-04-13T06:18:00.136Z,20.20
2023-04-13T06:20:27.158Z,20.20
2023-04-13T06:22:53.865Z,20.20
2023-04-13T06:25:20.977Z,20.20
2023-04-13T06:27:48.961Z,20.20
2023-04-13T06:30:15.771Z,20.20
2023-04-13T06:32:42.585Z,20.20
2023-04-13T06:35:10.904Z,20.20
2023-04-13T06:37:39.033Z,20.30
2023-04-13T06:40:14.608Z,20.20
2023-04-13T06:42:41.690Z,20.20
2023-04-13T06:45:11.857Z,20.20
2023-04-13T06:47:42.043Z,20.20
2023-04-13T06:50:10.147Z,20.20
2023-04-13T06:52:37.467Z,20.20
2023-04-13T06:55:04.858Z,20.30
2023-04-13T06:57:31.598Z,20.30
2023-04-13T06:59:59.933Z,20.30
2023-04-13T07:02:27.015Z,20.40
2023-04-13T07:04:54.920Z,20.40
2023-04-13T07:07:21.662Z,20.40
2023-04-13T07:09:48.595Z,20.40
2023-04-13T07:12:15.662Z,20.40
2023-04-13T07:14:42.580Z,20.40
2023-04-13T07:17:11.273Z,20.30
2023-04-13T07:19:39.497Z,20.30
2023-04-13T07:22:06.233Z,20.30
2023-04-13T07:24:34.106Z,20.40
2023-04-13T07:27:01.318Z,20.40
2023-04-13T07:29:29.324Z,20.40
2023-04-13T07:32:03.692Z,20.40
2023-04-13T07:34:30.824Z,20.40
2023-04-13T07:36:57.833Z,20.40
2023-04-13T07:39:25.077Z,20.40
2023-04-13T07:41:51.853Z,20.40
2023-04-13T07:44:18.600Z,20.40
2023-04-13T07:46:45.488Z,20.40
2023-04-13T07:49:12.205Z,20.40
2023-04-13T07:51:38.961Z,20.40
2023-04-13T07:54:05.773Z,20.50
2023-04-13T07:56:32.539Z,20.40
2023-04-13T07:59:01.276Z,20.40
2023-04-13T08:01:28.589Z,20.50
2023-04-13T08:03:55.505Z,20.50
2023-04-13T08:06:23.337Z,20.40
2023-04-13T08:08:50.065Z,20.40
2023-04-13T08:11:16.876Z,20.40
2023-04-13T08:13:43.655Z,20.40
2023-04-13T08:16:11.117Z,20.40
2023-04-13T08:18:38.401Z,20.40
2023-04-13T08:21:11.271Z,20.40
2023-04-13T08:23:42.402Z,20.40
2023-04-13T08:26:19.244Z,20.40
2023-04-13T08:28:47.663Z,20.40
2023-04-13T08:31:15.675Z,20.40
2023-04-13T08:33:43.201Z,20.40
2023-04-13T08:36:09.948Z,20.40
2023-04-13T08:38:37.013Z,20.40
2023-04-13T08:41:03.874Z,20.40
2023-04-13T08:43:33.024Z,20.50
2023-04-13T08:46:02.611Z,20.40
2023-04-13T08:48:42.318Z,20.50
2023-04-13T08:51:14.605Z,20.50
2023-04-13T08:53:41.397Z,20.40
2023-04-13T08:56:10.204Z,20.50
2023-04-13T08:58:38.183Z,20.50
2023-04-13T09:01:06.397Z,20.50
2023-04-13T09:03:36.009Z,20.50
2023-04-13T09:06:05.227Z,20.60
2023-04-13T09:08:35.663Z,20.60
2023-04-13T09:11:03.781Z,20.60
2023-04-13T09:13:31.327Z,20.60
2023-04-13T09:15:58.356Z,20.60
2023-04-13T09:18:25.225Z,20.60
2023-04-13T09:21:00.479Z,20.60
2023-04-13T09:23:27.301Z,20.60
2023-04-13T09:26:09.205Z,20.60
2023-04-13T09:28:46.846Z,20.60
2023-04-13T09:31:13.882Z,20.60
2023-04-13T09:33:52.002Z,20.50
2023-04-13T09:36:20.580Z,20.50
2023-04-13T09:38:55.154Z,20.50
2023-04-13T09:41:29.967Z,20.50
2023-04-13T09:43:56.899Z,20.50
2023-04-13T09:46:23.688Z,20.60
2023-04-13T09:49:02.120Z,20.60
2023-04-13T09:51:39.737Z,20.50
2023-04-13T09:54:06.879Z,20.50
2023-04-13T09:56:52.755Z,20.50
2023-04-13T09:59:19.687Z,20.50
2023-04-13T10:01:46.721Z,20.50
2023-04-13T10:04:13.557Z,20.50
2023-04-13T10:06:40.844Z,20.50
2023-04-13T10:09:07.980Z,20.50
2023-04-13T10:11:39.755Z,20.50
2023-04-13T10:14:09.278Z,20.50
2023-04-13T10:16:54.294Z,20.50
2023-04-13T10:19:23.368Z,20.50
2023-04-13T10:21:51.871Z,20.50
2023-04-13T10:24:19.445Z,20.50
2023-04-13T10:26:46.117Z,20.50
2023-04-13T10:29:14.670Z,20.50
2023-04-13T10:31:48.698Z,20.50
2023-04-13T10:34:26.450Z,20.50
2023-04-13T10:36:56.060Z,20.50
2023-04-13T10:39:27.644Z,20.50
2023-04-13T10:42:08.594Z,20.40
2023-04-13T10:44:46.056Z,20.40
2023-04-13T10:47:13.650Z,20.40
2023-04-13T10:49:40.994Z,20.40
2023-04-13T10:52:09.067Z,20.40
2023-04-13T10:54:35.766Z,20.40
2023-04-13T10:57:04.616Z,20.40
2023-04-13T10:59:57.961Z,20.50
2023-04-13T11:02:32.022Z,20.40
2023-04-13T11:05:01.594Z,20.50
2023-04-13T11:07:29.396Z,20.50
2023-04-13T11:12:28.609Z,20.50
2023-04-13T11:14:55.788Z,20.50
2023-04-13T11:17:23.056Z,20.50
2023-04-13T11:19:51.536Z,20.50
2023-04-13T11:22:19.222Z,20.50
2023-04-13T11:24:46.202Z,20.50
2023-04-13T11:27:25.431Z,20.60
2023-04-13T11:29:58.941Z,20.50
2023-04-13T11:32:26.375Z,20.60
2023-04-13T11:34:53.185Z,20.60
2023-04-13T11:37:20.178Z,20.60
2023-04-13T11:39:46.880Z,20.60
2023-04-13T11:42:13.646Z,20.60
2023-04-13T11:44:42.689Z,20.60
2023-04-13T11:47:13.112Z,20.60
2023-04-13T11:49:41.743Z,20.60
2023-04-13T11:52:08.413Z,20.60
2023-04-13T11:54:35.164Z,20.60
2023-04-13T11:57:02.481Z,20.50
2023-04-13T11:59:29.222Z,20.60
2023-04-13T12:02:02.854Z,20.50
2023-04-13T12:04:39.079Z,20.60
2023-04-13T12:07:14.154Z,20.60
2023-04-13T12:09:55.941Z,20.60
2023-04-13T12:15:15.384Z,20.70
2023-04-13T12:20:24.801Z,20.60
2023-04-13T12:23:00.176Z,20.60
2023-04-13T12:25:35.865Z,20.70
2023-04-13T12:28:03.733Z,20.80
2023-04-13T12:30:30.486Z,20.80
2023-04-13T12:32:57.502Z,20.80
2023-04-13T12:35:24.366Z,20.80
2023-04-13T12:37:52.465Z,20.80
2023-04-13T12:40:19.317Z,20.80
2023-04-13T12:42:46.595Z,20.80
2023-04-13T12:45:14.099Z,20.80
2023-04-13T12:47:41.575Z,20.70
2023-04-13T12:50:09.635Z,20.80
2023-04-13T12:52:37.297Z,20.80
2023-04-13T12:55:05.214Z,20.80
2023-04-13T12:57:33.512Z,20.80
2023-04-13T13:00:00.361Z,20.80
2023-04-13T13:02:29.874Z,20.80
2023-04-13T13:04:57.266Z,20.70
2023-04-13T13:07:24.067Z,20.80
2023-04-13T13:09:51.494Z,20.80
2023-04-13T13:12:18.669Z,20.80
2023-04-13T13:14:45.428Z,20.80
2023-04-13T13:17:12.183Z,20.90
2023-04-13T13:19:38.926Z,20.80
2023-04-13T13:22:06.184Z,20.80
2023-04-13T13:24:34.027Z,20.80
2023-04-13T13:27:37.475Z,20.80
2023-04-13T13:29:47.757Z,20.80
2023-04-13T13:32:14.649Z,20.80
2023-04-13T13:34:41.443Z,20.80
2023-04-13T13:37:08.804Z,20.80
2023-04-13T13:39:37.382Z,20.80
2023-04-13T13:42:05.137Z,20.80
2023-04-13T13:44:32.154Z,20.80
2023-04-13T13:46:59.065Z,20.90
2023-04-13T13:49:25.843Z,20.90
2023-04-13T13:51:52.853Z,20.90
2023-04-13T13:54:20.508Z,20.90
2023-04-13T13:56:47.224Z,20.90
2023-04-13T13:59:14.043Z,20.90
2023-04-13T14:01:41.164Z,20.90
2023-04-13T14:04:08.046Z,20.90
2023-04-13T14:06:35.657Z,20.80
2023-04-13T14:09:02.614Z,20.80
2023-04-13T14:11:29.903Z,20.80
2023-04-13T14:13:56.557Z,20.80
2023-04-13T14:16:23.599Z,20.80
2023-04-13T14:18:50.560Z,20.80
2023-04-13T14:21:21.374Z,20.70
2023-04-13T14:23:49.761Z,20.80
2023-04-13T14:26:16.716Z,20.80
2023-04-13T14:28:43.763Z,20.90
2023-04-13T14:31:10.554Z,20.90
2023-04-13T14:33:42.105Z,20.70
2023-04-13T14:36:11.042Z,20.60
2023-04-13T14:38:38.742Z,20.60
2023-04-13T14:41:05.986Z,20.50
2023-04-13T14:43:32.643Z,20.50
2023-04-13T14:45:59.415Z,20.50
2023-04-13T14:48:26.402Z,20.50
2023-04-13T14:50:53.275Z,20.60
2023-04-13T14:53:20.070Z,20.60
2023-04-13T14:55:47.391Z,20.60
2023-04-13T14:58:14.124Z,20.60
2023-04-13T15:00:41.186Z,20.70
2023-04-13T15:03:09.496Z,20.70
2023-04-13T15:05:47.332Z,20.70
2023-04-13T15:08:16.676Z,20.70
2023-04-13T15:10:43.429Z,20.70
2023-04-13T15:13:10.371Z,20.70
2023-04-13T15:15:37.344Z,20.70
2023-04-13T15:18:04.378Z,20.70
2023-04-13T15:20:31.490Z,20.70
2023-04-13T15:22:58.388Z,20.70
2023-04-13T15:25:25.487Z,20.70
2023-04-13T15:27:53.069Z,20.70
2023-04-13T15:30:28.147Z,20.70
2023-04-13T15:33:04.533Z,20.70
2023-04-13T15:35:31.876Z,20.70
2023-04-13T15:38:00.980Z,20.70
2023-04-13T15:40:29.049Z,20.80
2023-04-13T15:42:55.749Z,20.80
2023-04-13T15:45:22.546Z,20.80
2023-04-13T15:47:49.308Z,20.80
2023-04-13T15:50:17.463Z,20.80
2023-04-13T15:52:44.235Z,20.80
2023-04-13T15:55:12.129Z,20.70
2023-04-13T15:57:38.877Z,20.70
2023-04-13T16:00:08.882Z,20.70
2023-04-13T16:02:36.530Z,20.80
2023-04-13T16:05:03.642Z,20.90
2023-04-13T16:07:30.482Z,20.80
2023-04-13T16:09:58.399Z,20.80
2023-04-13T16:12:32.977Z,20.80
2023-04-13T16:14:59.871Z,20.80
2023-04-13T16:17:33.551Z,20.70
2023-04-13T16:20:14.530Z,20.70
2023-04-13T16:22:43.079Z,20.70
2023-04-13T16:25:15.244Z,20.70
2023-04-13T16:27:44.016Z,20.70
2023-04-13T16:30:13.209Z,20.80
2023-04-13T16:35:41.782Z,20.80
2023-04-13T16:38:08.453Z,20.80
2023-04-13T16:40:35.993Z,20.80
2023-04-13T16:43:03.878Z,20.80
2023-04-13T16:45:30.608Z,20.90
2023-04-13T16:47:57.389Z,20.90
2023-04-13T16:50:30.289Z,20.90
2023-04-13T16:52:58.166Z,21.10
2023-04-13T16:55:26.808Z,21.10
2023-04-13T16:57:53.545Z,21.00
2023-04-13T17:00:20.730Z,21.00
2023-04-13T17:02:47.860Z,21.00
2023-04-13T17:05:17.052Z,20.90
2023-04-13T17:07:51.290Z,20.90
2023-04-13T17:10:26.694Z,21.00
2023-04-13T17:12:53.378Z,21.00
2023-04-13T17:15:20.481Z,21.00
2023-04-13T17:17:51.563Z,21.00
2023-04-13T17:20:18.598Z,21.10
2023-04-13T17:23:04.617Z,21.10
2023-04-13T17:25:31.599Z,21.20
2023-04-13T17:27:58.265Z,21.20
2023-04-13T17:30:24.951Z,21.10
2023-04-13T17:32:51.657Z,21.00
2023-04-13T17:35:18.611Z,21.00
2023-04-13T17:37:51.245Z,21.00
2023-04-13T17:40:24.099Z,21.10
2023-04-13T17:42:50.932Z,21.20
2023-04-13T17:45:19.438Z,21.10
2023-04-13T17:47:48.175Z,21.00
2023-04-13T17:50:14.900Z,21.00
2023-04-13T17:52:42.137Z,20.90
2023-04-13T17:55:12.083Z,20.90
2023-04-13T17:57:48.519Z,20.90
2023-04-13T18:00:28.325Z,20.90
2023-04-13T18:03:00.713Z,20.90
2023-04-13T18:05:29.436Z,21.00
2023-04-13T18:08:03.777Z,21.00
2023-04-13T18:10:31.067Z,20.90
2023-04-13T18:12:59.918Z,20.90
2023-04-13T18:15:26.865Z,20.90
2023-04-13T18:17:53.604Z,20.90
2023-04-13T18:20:21.003Z,20.90
2023-04-13T18:22:48.703Z,20.90
2023-04-13T18:25:15.678Z,20.90
2023-04-13T18:27:42.897Z,20.90
2023-04-13T18:30:11.241Z,20.90
2023-04-13T18:32:38.093Z,20.90
2023-04-13T18:35:04.969Z,20.90
2023-04-13T18:37:31.690Z,20.90
2023-04-13T18:39:58.578Z,20.90
2023-04-13T18:42:26.068Z,20.90
2023-04-13T18:44:52.813Z,20.90
2023-04-13T18:47:27.774Z,21.00
2023-04-13T18:49:54.992Z,20.90
2023-04-13T18:52:23.659Z,21.00
2023-04-13T18:54:52.188Z,20.90
2023-04-13T18:57:19.996Z,21.00
2023-04-13T18:59:47.188Z,21.00
2023-04-13T19:02:15.135Z,21.10
2023-04-13T19:04:42.143Z,21.10
2023-04-13T19:07:08.892Z,21.00
2023-04-13T19:09:39.347Z,21.00
2023-04-13T19:12:06.600Z,20.90
2023-04-13T19:14:33.360Z,21.00
2023-04-13T19:17:00.196Z,20.90
2023-04-13T19:19:29.691Z,20.90
2023-04-13T19:21:56.404Z,20.90
2023-04-13T19:24:23.111Z,20.90
2023-04-13T19:26:50.681Z,20.90
2023-04-13T19:29:18.016Z,20.90
2023-04-13T19:31:45.274Z,20.90
2023-04-13T19:34:12.237Z,20.90
2023-04-13T19:36:39.070Z,20.90
2023-04-13T19:39:06.175Z,20.90
2023-04-13T19:41:33.227Z,20.90
2023-04-13T19:44:00.776Z,20.90
2023-04-13T19:46:28.690Z,20.90
2023-04-13T19:48:58.411Z,20.80
2023-04-13T19:51:28.794Z,20.80
2023-04-13T19:53:55.934Z,20.80
2023-04-13T19:56:23.406Z,20.80
2023-04-13T19:58:51.443Z,20.80
2023-04-13T20:01:18.492Z,20.80
2023-04-13T20:03:45.729Z,20.80
2023-04-13T20:06:12.562Z,20.80
2023-04-13T20:08:39.315Z,20.80
2023-04-13T20:11:06.298Z,20.80
2023-04-13T20:13:32.965Z,20.80
2023-04-13T20:15:59.666Z,20.80
2023-04-13T20:18:26.342Z,20.70
2023-04-13T20:20:53.629Z,20.70
2023-04-13T20:23:21.244Z,20.70
2023-04-13T20:25:48.451Z,20.70
2023-04-13T20:28:15.244Z,20.70
2023-04-13T20:30:42.014Z,20.80
2023-04-13T20:33:08.826Z,20.70
2023-04-13T20:35:35.564Z,20.70
2023-04-13T20:38:02.246Z,20.70
2023-04-13T20:40:28.928Z,20.70
2023-04-13T20:42:56.565Z,20.70
2023-04-13T20:45:24.574Z,20.70
2023-04-13T20:47:53.752Z,20.60
2023-04-13T20:50:26.999Z,20.60
2023-04-13T20:52:56.693Z,20.60
2023-04-13T20:55:25.018Z,20.60
2023-04-13T20:57:51.693Z,20.60
2023-04-13T21:00:19.270Z,20.60
2023-04-13T21:02:46.909Z,20.60
2023-04-13T21:05:13.910Z,20.60
2023-04-13T21:07:41.830Z,20.60
2023-04-13T21:10:09.364Z,20.60
2023-04-13T21:12:36.509Z,20.50
2023-04-13T21:15:06.716Z,20.50
2023-04-13T21:17:33.430Z,20.50
2023-04-13T21:20:00.809Z,20.50
2023-04-13T21:22:27.550Z,20.50
2023-04-13T21:24:55.366Z,20.50
2023-04-13T21:27:22.448Z,20.50
2023-04-13T21:29:49.200Z,20.50
2023-04-13T21:32:16.009Z,20.40
2023-04-13T21:34:42.792Z,20.40
2023-04-13T21:37:09.495Z,20.40
2023-04-13T21:39:36.184Z,20.40
2023-04-13T21:42:04.813Z,20.40
2023-04-13T21:44:31.540Z,20.40
2023-04-13T21:46:58.565Z,20.40
2023-04-13T21:49:25.582Z,20.40
2023-04-13T21:51:52.693Z,20.40
2023-04-13T21:54:19.405Z,20.40
2023-04-13T21:56:46.676Z,20.40
2023-04-13T21:59:13.369Z,20.40
2023-04-13T22:01:40.185Z,20.40
2023-04-13T22:04:07.115Z,20.40
2023-04-13T22:06:33.926Z,20.40
2023-04-13T22:09:00.934Z,20.40
2023-04-13T22:11:28.919Z,20.40
2023-04-13T22:13:55.692Z,20.40
2023-04-13T22:16:22.590Z,20.40
2023-04-13T22:18:49.502Z,20.30
2023-04-13T22:21:16.205Z,20.30
2023-04-13T22:23:42.929Z,20.30
2023-04-13T22:26:09.628Z,20.30
2023-04-13T22:28:36.356Z,20.30
2023-04-13T22:31:09.336Z,20.30
2023-04-13T22:33:36.436Z,20.30
2023-04-13T22:36:06.457Z,20.20
2023-04-13T22:38:33.142Z,20.20
2023-04-13T22:41:04.809Z,20.20
2023-04-13T22:43:31.482Z,20.20
2023-04-13T22:46:00.486Z,20.30
2023-04-13T22:48:31.348Z,20.30
2023-04-13T22:51:02.128Z,20.30
2023-04-13T22:53:29.947Z,20.30
2023-04-13T22:55:56.672Z,20.30
2023-04-13T22:58:23.501Z,20.30
2023-04-13T23:00:50.351Z,20.30
2023-04-13T23:03:17.196Z,20.30
2023-04-13T23:05:44.105Z,20.30
2023-04-13T23:08:10.959Z,20.30
2023-04-13T23:10:37.682Z,20.30
2023-04-13T23:13:04.740Z,20.20
2023-04-13T23:15:31.838Z,20.20
2023-04-13T23:17:58.691Z,20.20
2023-04-13T23:20:27.683Z,20.20
2023-04-13T23:22:54.358Z,20.20
2023-04-13T23:25:21.061Z,20.20
2023-04-13T23:27:47.808Z,20.20
2023-04-13T23:30:14.557Z,20.20
2023-04-13T23:32:41.329Z,20.10
2023-04-13T23:35:08.655Z,20.20
2023-04-13T23:37:35.486Z,20.20
2023-04-13T23:40:03.129Z,20.20
2023-04-13T23:42:29.919Z,20.30
2023-04-13T23:44:56.619Z,20.30
2023-04-13T23:47:23.282Z,20.30
2023-04-13T23:49:51.509Z,20.30
2023-04-13T23:52:18.850Z,20.30
2023-04-13T23:54:45.684Z,20.30
2023-04-13T23:57:12.728Z,20.30
2023-04-13T23:59:39.519Z,20.20
